Akiak, AK

3:27 AM AKDT on July 31, 2014 (GMT -0800)
Kwethluk AP, Kwethluk, AK (PFKW) Elev 26 ft | 60.79 °N, 161.44 °W | Change Station

Current weather conditions updated 31 minutes ago

Clear
Clear
60 °F
Feels Like 60 °F
N
8
Wind Variable Wind from NW

Today is forecast to be Much Cooler than yesterday. Showers possible.

Today
High -- | Low -- °F
--% Chance of Precip.
Yesterday
High -- | Low -- °F
Precip. -- in
6:17 AM 11:22 PM
Waxing Crescent, 18% visible
Pressure 30.24 in
Visibility 10.0 miles
Clouds Clear
Dew Point 53 °F
Humidity 78%
Rainfall 0.00 in
Snow Depth Not available.
UV 0 out of 12
Pollen Not available.
Air Quality Not available.
Flu Activity Not available.
METAR PFKW 311056Z AUTO 32007KT 10SM CLR 16/12 A3023 RMK AO2 SLP238 T01560117 $

More Conditions Fewer Conditions

Pressure 30.24 in
Visibility 10.0 miles
Clouds Clear
Dew Point 53 °F
Humidity 78%
Rainfall 0.00 in
Snow Depth Not available.
UV 0 out of 12
Pollen Not available.
Air Quality Not available.
Flu Activity Not available.
METAR PFKW 311056Z AUTO 32007KT 10SM CLR 16/12 A3023 RMK AO2 SLP238 T01560117 $

More Conditions Fewer Conditions

10-Day Weather Forecast

Almanac

Astronomy

Jul. 31, 2014 Rise Set
Actual Time 6:17 AM AKDT 11:22 PM AKDT
Civil Twilight 5:12 AM AKDT 12:27 AM AKDT
Nautical Twilight 3:23 AM AKDT 2:18 AM AKDT
Astronomical Twilight Sun does not rise Sun does not rise
Moon 12:30 PM AKDT No Moon Set
Length of Visible Light 19h 14m
Length of Day
17h 05m
Tomorrow will be 5m 6s shorter.
Waxing Crescent, 18% of the Moon is Illuminated
Today
Waxing Crescent
Aug 3
First Quarter
Aug 10
Full
Aug 17
Last Quarter
Aug 25
New

Today's Extremes

State Highs State Lows

Community

WunderPhotos

Upload Photos

1,739,296 photos uploaded!

WunderBlogs® & News

Nearby

Snow Depth

Station Depth Elevation
Rocky Point 2 in 500 ft
Mcneil Canyon 1 in 1320 ft
Port Graham 0 in 300 ft
MF Bradley River 344 in 2300 ft
Point Mackenzie 1 in 200 ft

Earthquake Activity

City Distance Mag. Time & Date
No recent earthquake activity has been reported nearby.
Minimum magnitude displayed is 2.5.

Coastal Water Temperatures

Place Temperature
No Stations Reporting

Nearby Weather Stations

There are no personal weather stations in this area.